Time;durP1;ratioP1;P1;durP2;ratioP2;P2;SDS_P1;SDS_P2;PMS_P1;PMS_P2;Temp;Humidity;BMP_temperature;BMP_pressure;BME280_temperature;BME280_humidity;BME280_pressure;Samples;Min_cycle;Max_cycle;Signal;HPM_P1;HPM_P2
2021/09/02 00:00:14;;;;;;;9.63;6.80;;;12.60;99.90;;;;;;5067873;28;20386;-74
2021/09/02 00:02:40;;;;;;;9.88;6.45;;;12.50;99.90;;;;;;5055926;28;20028;-73
2021/09/02 00:05:07;;;;;;;10.63;6.38;;;12.40;99.90;;;;;;5055347;28;20079;-75
2021/09/02 00:07:33;;;;;;;9.77;7.30;;;12.50;99.90;;;;;;5055608;28;20092;-74
2021/09/02 00:09:58;;;;;;;8.82;6.80;;;12.40;99.90;;;;;;5055108;28;20037;-74
2021/09/02 00:12:24;;;;;;;9.80;7.45;;;12.40;99.90;;;;;;5054911;28;20025;-74
2021/09/02 00:14:50;;;;;;;10.75;6.75;;;12.50;99.90;;;;;;5055799;28;20025;-74
2021/09/02 00:17:16;;;;;;;11.48;7.50;;;12.50;99.90;;;;;;5056662;28;20063;-74
2021/09/02 00:19:41;;;;;;;10.80;8.23;;;12.50;99.90;;;;;;5053546;28;20070;-74
2021/09/02 00:22:07;;;;;;;10.68;7.47;;;12.40;99.90;;;;;;5055391;28;20024;-74
2021/09/02 00:24:33;;;;;;;9.95;7.25;;;12.30;99.90;;;;;;5054408;28;20438;-75
2021/09/02 00:26:58;;;;;;;8.85;6.65;;;12.40;99.90;;;;;;5054806;28;20043;-73
2021/09/02 00:29:24;;;;;;;9.90;7.13;;;12.50;99.90;;;;;;5054243;28;20025;-75
2021/09/02 00:31:49;;;;;;;7.75;6.05;;;12.40;99.90;;;;;;5052941;28;20079;-76
2021/09/02 00:34:18;;;;;;;7.10;6.28;;;12.30;99.90;;;;;;5054313;28;20029;-74
2021/09/02 00:36:43;;;;;;;9.85;6.50;;;12.30;99.90;;;;;;5053105;28;20025;-75
2021/09/02 00:39:09;;;;;;;9.00;6.53;;;12.30;99.90;;;;;;5054077;28;20043;-73
2021/09/02 00:41:34;;;;;;;9.02;7.10;;;12.20;99.90;;;;;;5054078;28;20096;-73
2021/09/02 00:44:00;;;;;;;8.02;6.75;;;12.30;99.90;;;;;;5053882;28;20112;-74
2021/09/02 00:46:26;;;;;;;12.82;6.47;;;12.20;99.90;;;;;;5053060;28;20029;-74
2021/09/02 00:48:52;;;;;;;8.18;5.90;;;12.20;99.90;;;;;;5065378;28;20028;-74
2021/09/02 00:51:21;;;;;;;10.63;6.25;;;12.10;99.90;;;;;;5072303;28;20047;-74
2021/09/02 00:53:49;;;;;;;7.10;6.38;;;12.10;99.90;;;;;;5073517;28;20341;-74
2021/09/02 00:56:15;;;;;;;8.63;6.55;;;12.10;99.90;;;;;;5073111;28;20024;-74
2021/09/02 00:58:41;;;;;;;11.30;7.00;;;12.10;99.90;;;;;;5073347;28;20024;-75
2021/09/02 01:01:07;;;;;;;8.20;6.50;;;12.10;99.90;;;;;;5073287;28;20100;-73
2021/09/02 01:03:35;;;;;;;8.18;7.05;;;12.10;99.90;;;;;;5071765;28;20121;-74
2021/09/02 01:06:00;;;;;;;7.97;7.18;;;12.00;99.90;;;;;;5073127;28;20029;-73
2021/09/02 01:08:27;;;;;;;7.15;6.45;;;12.00;99.90;;;;;;5073183;28;20162;-73
2021/09/02 01:10:52;;;;;;;7.07;6.35;;;12.00;99.90;;;;;;5071734;28;20032;-75
2021/09/02 01:13:19;;;;;;;8.63;7.82;;;12.00;99.90;;;;;;5073795;28;20031;-75
2021/09/02 01:15:45;;;;;;;12.23;7.95;;;12.00;99.90;;;;;;5072213;28;20391;-74
2021/09/02 01:18:11;;;;;;;8.35;6.50;;;11.90;99.90;;;;;;5073074;28;20100;-74
2021/09/02 01:20:37;;;;;;;10.23;6.35;;;11.90;99.90;;;;;;5072833;28;20021;-75
2021/09/02 01:23:04;;;;;;;10.30;6.97;;;11.80;99.90;;;;;;5059273;28;20431;-75
2021/09/02 01:25:33;;;;;;;8.23;7.35;;;11.90;99.90;;;;;;5053556;28;20104;-75
2021/09/02 01:28:02;;;;;;;10.02;7.05;;;11.90;99.90;;;;;;5052856;28;20412;-75
2021/09/02 01:30:28;;;;;;;7.60;6.68;;;11.80;99.90;;;;;;5051339;28;20021;-75
2021/09/02 01:32:55;;;;;;;8.27;6.80;;;11.80;99.90;;;;;;5052956;28;20067;-75
2021/09/02 01:35:22;;;;;;;7.13;6.43;;;11.80;99.90;;;;;;5051531;28;20036;-74
2021/09/02 01:37:51;;;;;;;7.63;6.82;;;11.80;99.90;;;;;;5052809;28;20048;-74
2021/09/02 01:40:18;;;;;;;8.23;6.50;;;11.70;99.90;;;;;;5052597;28;20043;-75
2021/09/02 01:42:44;;;;;;;8.80;6.82;;;11.70;99.90;;;;;;5052822;28;20390;-75
2021/09/02 01:45:11;;;;;;;10.00;6.25;;;11.70;99.90;;;;;;5052560;28;20063;-75
2021/09/02 01:47:36;;;;;;;9.13;7.00;;;11.70;99.90;;;;;;5059262;28;20028;-75
2021/09/02 01:50:21;;;;;;;8.32;6.40;;;11.70;99.90;;;;;;5067293;28;20025;-75
2021/09/02 01:52:54;;;;;;;11.68;6.75;;;11.70;99.90;;;;;;5073069;28;20078;-75
2021/09/02 01:55:22;;;;;;;8.63;7.22;;;11.70;99.90;;;;;;5072376;28;20017;-75
2021/09/02 01:57:47;;;;;;;9.07;7.55;;;11.70;99.90;;;;;;5072486;28;20020;-75
2021/09/02 02:00:14;;;;;;;8.82;7.15;;;11.60;99.90;;;;;;5071971;28;20031;-76
2021/09/02 02:02:40;;;;;;;9.90;6.70;;;11.50;99.90;;;;;;5070968;28;20028;-74
2021/09/02 02:05:07;;;;;;;8.90;7.35;;;11.50;99.90;;;;;;5057044;28;20082;-75
2021/09/02 02:07:34;;;;;;;8.35;7.10;;;11.50;99.90;;;;;;5052233;28;20029;-75
2021/09/02 02:09:59;;;;;;;8.10;6.53;;;11.50;99.90;;;;;;5051853;28;20385;-75
2021/09/02 02:12:25;;;;;;;10.57;7.20;;;11.50;99.90;;;;;;5051943;28;20025;-74
2021/09/02 02:14:50;;;;;;;8.75;7.07;;;11.40;99.90;;;;;;5051933;28;20017;-76
2021/09/02 02:17:16;;;;;;;10.15;7.13;;;11.40;99.90;;;;;;5050715;28;20431;-75
2021/09/02 02:19:42;;;;;;;8.43;6.88;;;11.50;99.90;;;;;;5052179;28;20372;-74
2021/09/02 02:22:07;;;;;;;7.78;7.05;;;11.40;99.90;;;;;;5051762;28;20017;-75
2021/09/02 02:24:33;;;;;;;9.10;7.50;;;11.40;99.90;;;;;;5053766;28;20104;-75
2021/09/02 02:26:59;;;;;;;9.95;7.78;;;11.40;99.90;;;;;;5052448;28;20047;-75
2021/09/02 02:29:24;;;;;;;11.35;7.28;;;11.40;99.90;;;;;;5050564;28;20033;-75
2021/09/02 02:31:50;;;;;;;10.75;7.88;;;11.30;99.90;;;;;;5052079;28;20036;-75
2021/09/02 02:34:16;;;;;;;8.50;6.85;;;11.20;99.90;;;;;;5050772;28;20401;-75
2021/09/02 02:36:42;;;;;;;9.60;6.93;;;11.30;99.90;;;;;;5051826;28;20494;-75
2021/09/02 02:39:08;;;;;;;8.85;7.45;;;11.30;99.90;;;;;;5051643;28;20100;-76
2021/09/02 02:41:33;;;;;;;9.20;6.93;;;11.30;99.90;;;;;;5051645;28;20361;-75
2021/09/02 02:43:59;;;;;;;7.45;6.50;;;11.20;99.90;;;;;;5051501;28;20028;-75
2021/09/02 02:46:25;;;;;;;7.28;6.57;;;11.20;99.90;;;;;;5050760;28;20079;-75
2021/09/02 02:48:50;;;;;;;8.02;7.00;;;11.20;99.90;;;;;;5061879;28;20028;-74
2021/09/02 02:51:16;;;;;;;10.52;7.78;;;11.20;99.90;;;;;;5070215;28;20073;-75
2021/09/02 02:53:42;;;;;;;9.35;7.10;;;11.20;99.90;;;;;;5071384;28;20024;-75
2021/09/02 02:56:07;;;;;;;7.72;6.93;;;11.10;99.90;;;;;;5071428;28;20083;-75
2021/09/02 02:58:33;;;;;;;8.30;7.38;;;11.20;99.90;;;;;;5070230;28;20036;-75
2021/09/02 03:00:58;;;;;;;7.97;6.57;;;11.20;99.90;;;;;;5070134;28;20406;-74
2021/09/02 03:03:24;;;;;;;10.93;7.00;;;11.10;99.90;;;;;;5071617;28;20025;-75
2021/09/02 03:05:49;;;;;;;7.38;6.53;;;11.10;99.90;;;;;;5071466;28;20102;-75
2021/09/02 03:08:15;;;;;;;8.88;7.47;;;11.10;99.90;;;;;;5070067;28;20032;-75
2021/09/02 03:10:41;;;;;;;7.82;7.03;;;11.00;99.90;;;;;;5071287;28;20035;-75
2021/09/02 03:13:06;;;;;;;7.93;7.13;;;11.00;99.90;;;;;;5070204;28;20024;-75
2021/09/02 03:15:33;;;;;;;9.38;7.45;;;11.00;99.90;;;;;;5071462;28;20023;-75
2021/09/02 03:17:58;;;;;;;11.32;8.50;;;11.00;99.90;;;;;;5070144;28;20431;-75
2021/09/02 03:20:24;;;;;;;8.00;6.85;;;11.00;99.90;;;;;;5071350;28;20021;-76
2021/09/02 03:22:50;;;;;;;11.43;7.95;;;11.00;99.90;;;;;;5060195;28;20052;-75
2021/09/02 03:25:15;;;;;;;11.85;8.57;;;11.00;99.90;;;;;;5051458;28;20071;-75
2021/09/02 03:27:41;;;;;;;12.93;8.07;;;11.00;99.90;;;;;;5051181;28;20068;-75
2021/09/02 03:30:08;;;;;;;12.55;8.05;;;11.00;99.90;;;;;;5051348;28;20032;-75
2021/09/02 03:32:34;;;;;;;13.38;7.88;;;11.00;99.90;;;;;;5049866;28;20027;-76
2021/09/02 03:35:00;;;;;;;11.85;7.90;;;11.00;99.90;;;;;;5051144;28;20052;-75
2021/09/02 03:37:26;;;;;;;9.75;8.27;;;10.90;99.90;;;;;;5050991;28;20028;-75
2021/09/02 03:39:51;;;;;;;10.30;8.00;;;10.90;99.90;;;;;;5051073;28;20558;-75
2021/09/02 03:42:17;;;;;;;11.38;9.65;;;10.90;99.90;;;;;;5051428;28;20032;-75
2021/09/02 03:44:42;;;;;;;13.32;8.18;;;10.90;99.90;;;;;;5051118;28;20033;-75
2021/09/02 03:47:08;;;;;;;11.40;9.23;;;10.90;99.90;;;;;;5056443;28;20021;-75
2021/09/02 03:49:33;;;;;;;15.45;8.90;;;10.90;99.90;;;;;;5062867;28;20032;-75
2021/09/02 03:51:59;;;;;;;16.60;7.82;;;10.90;99.90;;;;;;5069860;28;20459;-75
2021/09/02 03:54:24;;;;;;;11.57;8.57;;;10.90;99.90;;;;;;5073331;28;20041;-75
2021/09/02 03:56:50;;;;;;;13.25;8.70;;;10.80;99.90;;;;;;5074780;28;20056;-75
2021/09/02 03:59:15;;;;;;;9.60;7.82;;;10.80;99.90;;;;;;5074691;28;20308;-75
2021/09/02 04:01:41;;;;;;;13.25;8.82;;;10.80;99.90;;;;;;5074582;28;20032;-75
2021/09/02 04:04:06;;;;;;;13.98;8.95;;;10.80;99.90;;;;;;5074671;28;20085;-75
2021/09/02 04:06:32;;;;;;;9.05;8.13;;;10.80;99.90;;;;;;5074584;28;20051;-74
2021/09/02 04:08:58;;;;;;;10.27;7.68;;;10.70;99.90;;;;;;5074415;28;20472;-75
2021/09/02 04:11:23;;;;;;;10.82;8.80;;;10.70;99.90;;;;;;5074483;28;20060;-75
2021/09/02 04:13:49;;;;;;;9.95;8.50;;;10.80;99.90;;;;;;5074356;28;20063;-75
2021/09/02 04:16:14;;;;;;;9.82;8.45;;;10.80;99.90;;;;;;5073457;28;20028;-75
2021/09/02 04:18:40;;;;;;;9.30;7.88;;;10.80;99.90;;;;;;5074269;28;20467;-75
2021/09/02 04:21:05;;;;;;;9.52;8.52;;;10.80;99.90;;;;;;5072888;28;20024;-75
2021/09/02 04:23:32;;;;;;;10.55;8.60;;;10.70;99.90;;;;;;5057790;28;20115;-75
2021/09/02 04:25:59;;;;;;;10.38;9.32;;;10.70;99.90;;;;;;5052731;28;20400;-75
2021/09/02 04:28:24;;;;;;;11.15;8.75;;;10.70;99.90;;;;;;5052784;28;20037;-74
2021/09/02 04:30:50;;;;;;;14.30;9.18;;;10.70;99.90;;;;;;5052622;28;20035;-75
2021/09/02 04:33:15;;;;;;;14.35;8.90;;;10.70;99.90;;;;;;5056613;28;20053;-75
2021/09/02 04:35:41;;;;;;;11.38;9.38;;;10.60;99.90;;;;;;5053971;28;20503;-75
2021/09/02 04:38:07;;;;;;;13.82;8.27;;;10.70;99.90;;;;;;5052625;28;20460;-75
2021/09/02 04:40:32;;;;;;;14.82;8.82;;;10.70;99.90;;;;;;5052451;28;20120;-74
2021/09/02 04:42:58;;;;;;;10.23;9.02;;;10.70;99.90;;;;;;5052664;28;20123;-75
2021/09/02 04:45:23;;;;;;;15.85;9.20;;;10.70;99.90;;;;;;5052825;28;20028;-74
2021/09/02 04:47:50;;;;;;;15.27;9.93;;;10.70;99.90;;;;;;5059404;28;20479;-75
2021/09/02 04:50:16;;;;;;;15.65;9.48;;;10.70;99.90;;;;;;5070126;28;20024;-75
2021/09/02 04:52:42;;;;;;;12.88;9.68;;;10.70;99.90;;;;;;5073466;28;20021;-75
2021/09/02 04:55:10;;;;;;;15.68;8.60;;;10.70;99.90;;;;;;5072394;28;20380;-75
2021/09/02 04:57:36;;;;;;;17.00;8.82;;;10.80;99.90;;;;;;5073527;28;20384;-75
2021/09/02 05:00:03;;;;;;;17.15;8.48;;;10.90;99.90;;;;;;5073235;28;20031;-75
2021/09/02 05:02:29;;;;;;;13.07;9.32;;;11.10;99.90;;;;;;5073336;28;20476;-75
2021/09/02 05:04:54;;;;;;;17.17;11.05;;;11.20;99.90;;;;;;5072696;28;20033;-75
2021/09/02 05:07:20;;;;;;;20.13;13.27;;;11.40;99.90;;;;;;5055575;28;20029;-75
2021/09/02 05:09:45;;;;;;;11.30;9.05;;;11.70;99.90;;;;;;5053261;28;20021;-75
2021/09/02 05:12:11;;;;;;;14.57;8.65;;;11.90;99.90;;;;;;5051959;28;20025;-74
2021/09/02 05:14:36;;;;;;;11.23;8.70;;;12.20;99.90;;;;;;5052844;28;20025;-75
2021/09/02 05:17:02;;;;;;;15.65;10.02;;;12.40;99.90;;;;;;5053019;28;20052;-76
2021/09/02 05:19:28;;;;;;;12.00;8.70;;;12.60;99.90;;;;;;5051696;28;20032;-75
2021/09/02 05:21:53;;;;;;;7.93;7.07;;;12.70;99.90;;;;;;5051627;28;20020;-74
2021/09/02 05:24:19;;;;;;;9.70;6.45;;;12.90;99.90;;;;;;5053259;28;20033;-75
2021/09/02 05:26:44;;;;;;;7.55;6.50;;;13.40;99.90;;;;;;5053917;28;20083;-75
2021/09/02 05:29:10;;;;;;;10.95;6.80;;;13.50;99.90;;;;;;5054492;28;20107;-74
2021/09/02 05:31:35;;;;;;;20.33;8.82;;;13.80;99.90;;;;;;5059044;28;20029;-74
2021/09/02 05:34:01;;;;;;;22.25;8.52;;;14.20;99.90;;;;;;5054464;28;20021;-75
2021/09/02 05:36:26;;;;;;;20.30;7.30;;;14.70;99.90;;;;;;5052760;28;20032;-75
2021/09/02 05:38:52;;;;;;;11.45;6.82;;;14.60;99.90;;;;;;5052170;28;20115;-75
2021/09/02 05:41:18;;;;;;;9.18;7.45;;;14.40;99.90;;;;;;5085764;28;20021;-75
2021/09/02 05:43:43;;;;;;;14.50;6.75;;;14.30;99.90;;;;;;5051456;28;20021;-74
2021/09/02 05:46:09;;;;;;;10.23;6.97;;;14.20;99.90;;;;;;5050876;28;20491;-75
2021/09/02 05:48:34;;;;;;;9.70;5.97;;;14.30;99.90;;;;;;5062859;28;20028;-75
2021/09/02 05:51:00;;;;;;;17.55;7.30;;;14.30;99.90;;;;;;5070992;28;20032;-75
2021/09/02 05:53:25;;;;;;;13.63;7.32;;;14.30;99.90;;;;;;5070802;28;20058;-75
2021/09/02 05:55:51;;;;;;;14.80;6.85;;;14.30;99.90;;;;;;5072285;28;20021;-75
2021/09/02 05:58:17;;;;;;;14.13;6.45;;;14.60;99.90;;;;;;5072106;28;20055;-75
2021/09/02 06:00:43;;;;;;;9.65;6.82;;;14.80;99.90;;;;;;5072162;28;20023;-74
2021/09/02 06:03:08;;;;;;;10.88;6.50;;;14.70;99.90;;;;;;5072144;28;20024;-75
2021/09/02 06:05:34;;;;;;;9.65;7.30;;;14.70;99.90;;;;;;5072059;28;20530;-75
2021/09/02 06:07:59;;;;;;;9.35;7.78;;;14.70;99.90;;;;;;5071062;28;20035;-75
2021/09/02 06:10:25;;;;;;;11.98;8.45;;;14.50;99.90;;;;;;5071913;28;20035;-76
2021/09/02 06:12:51;;;;;;;11.68;8.73;;;14.20;99.90;;;;;;5070708;28;20544;-75
2021/09/02 06:15:17;;;;;;;13.90;8.98;;;14.10;99.90;;;;;;5054211;28;20166;-75
2021/09/02 06:17:43;;;;;;;11.70;8.38;;;13.90;99.90;;;;;;5050256;28;20066;-75
2021/09/02 06:20:10;;;;;;;12.25;9.60;;;13.80;99.90;;;;;;5050572;28;20017;-75
2021/09/02 06:22:36;;;;;;;9.02;8.10;;;13.80;99.90;;;;;;5051928;28;20404;-75
2021/09/02 06:25:02;;;;;;;11.43;8.65;;;13.70;99.90;;;;;;5050739;28;20028;-76
2021/09/02 06:27:28;;;;;;;13.07;8.77;;;13.80;99.90;;;;;;5051972;28;20396;-75
2021/09/02 06:29:54;;;;;;;14.00;9.10;;;13.70;99.90;;;;;;5051720;28;20027;-76
2021/09/02 06:32:20;;;;;;;13.07;8.55;;;13.70;99.90;;;;;;5084393;28;20053;-75
2021/09/02 06:34:45;;;;;;;16.92;11.07;;;13.60;99.90;;;;;;5051833;28;20056;-75
2021/09/02 06:37:11;;;;;;;14.60;12.43;;;13.60;99.90;;;;;;5050622;28;20446;-75
2021/09/02 06:39:36;;;;;;;14.50;11.65;;;13.70;99.90;;;;;;5051660;28;20326;-75
2021/09/02 06:42:02;;;;;;;11.93;10.52;;;13.80;99.90;;;;;;5053127;28;20021;-75
2021/09/02 06:44:28;;;;;;;17.65;11.63;;;13.90;99.90;;;;;;5051616;28;20029;-75
2021/09/02 06:46:53;;;;;;;11.82;10.38;;;13.80;99.90;;;;;;5054733;28;20081;-76
2021/09/02 06:49:20;;;;;;;11.85;10.65;;;13.70;99.90;;;;;;5063151;28;20412;-76
2021/09/02 06:51:46;;;;;;;18.38;11.13;;;13.70;99.90;;;;;;5071484;28;20385;-75
2021/09/02 06:54:12;;;;;;;13.80;12.05;;;14.00;99.90;;;;;;5051775;28;20507;-76
2021/09/02 06:56:37;;;;;;;20.92;11.63;;;14.30;99.90;;;;;;5050098;28;20021;-76
2021/09/02 06:59:03;;;;;;;12.07;9.25;;;14.30;99.90;;;;;;5066666;28;20103;-76
2021/09/02 07:01:28;;;;;;;16.38;10.68;;;14.50;99.90;;;;;;5050315;28;20116;-75
2021/09/02 07:03:54;;;;;;;16.65;11.25;;;14.60;99.90;;;;;;5051561;28;20427;-75
2021/09/02 07:06:20;;;;;;;16.23;11.25;;;14.50;99.90;;;;;;5066921;28;20083;-75
2021/09/02 07:08:45;;;;;;;15.50;10.98;;;14.40;99.90;;;;;;5066722;28;20476;-73
2021/09/02 07:11:11;;;;;;;16.80;12.65;;;14.40;99.90;;;;;;5051294;28;20029;-74
2021/09/02 07:13:36;;;;;;;17.98;12.27;;;14.90;99.90;;;;;;5050297;28;20060;-74
2021/09/02 07:16:03;;;;;;;13.20;11.70;;;14.90;99.90;;;;;;5049508;28;20121;-74
2021/09/02 07:18:29;;;;;;;17.30;12.45;;;14.80;99.90;;;;;;5051342;28;20052;-74
2021/09/02 07:20:54;;;;;;;18.08;12.55;;;14.70;99.90;;;;;;5050166;28;20021;-75
2021/09/02 07:23:20;;;;;;;16.55;11.75;;;14.80;99.90;;;;;;5050100;28;20032;-75
2021/09/02 07:25:45;;;;;;;13.00;11.70;;;15.20;99.90;;;;;;5049871;28;20106;-74
2021/09/02 07:28:11;;;;;;;16.77;12.07;;;15.30;99.90;;;;;;5051539;28;20037;-74
2021/09/02 07:30:37;;;;;;;11.43;10.23;;;15.40;99.90;;;;;;5053830;28;20032;-75
2021/09/02 07:33:02;;;;;;;14.07;11.50;;;15.60;99.90;;;;;;5055050;28;20021;-75
2021/09/02 07:35:28;;;;;;;11.25;10.07;;;15.60;99.90;;;;;;5054992;28;20021;-76
2021/09/02 07:37:53;;;;;;;18.13;11.15;;;15.80;99.90;;;;;;5053753;28;20044;-74
2021/09/02 07:40:19;;;;;;;16.88;11.40;;;16.00;99.90;;;;;;5070237;28;20107;-73
2021/09/02 07:42:44;;;;;;;13.68;10.32;;;15.80;99.90;;;;;;5053517;28;20159;-75
2021/09/02 07:45:10;;;;;;;11.98;10.73;;;15.70;99.90;;;;;;5055476;28;20052;-75
2021/09/02 07:47:36;;;;;;;14.63;11.13;;;15.80;99.90;;;;;;5049942;28;20032;-75
2021/09/02 07:50:05;;;;;;;13.27;11.40;;;16.20;99.90;;;;;;5054812;28;20369;-75
2021/09/02 07:52:31;;;;;;;19.08;11.13;;;16.40;99.90;;;;;;5053419;28;20028;-74
2021/09/02 07:54:57;;;;;;;14.45;12.00;;;16.50;99.90;;;;;;5054687;28;20029;-75
2021/09/02 07:57:23;;;;;;;13.18;10.98;;;16.60;99.90;;;;;;5052997;28;20032;-74
2021/09/02 07:59:48;;;;;;;12.13;10.15;;;16.70;99.90;;;;;;5053464;28;20025;-75
2021/09/02 08:02:14;;;;;;;13.75;10.93;;;16.60;99.90;;;;;;5054644;28;20052;-74
2021/09/02 08:04:39;;;;;;;13.63;10.98;;;16.60;99.90;;;;;;5054838;28;20029;-74
2021/09/02 08:07:05;;;;;;;14.68;10.00;;;16.60;99.90;;;;;;5055320;28;20051;-74
2021/09/02 08:09:31;;;;;;;15.90;10.15;;;16.60;99.90;;;;;;5053716;28;20655;-74
2021/09/02 08:11:56;;;;;;;13.50;10.05;;;16.70;99.90;;;;;;5053756;28;20032;-74
2021/09/02 08:14:22;;;;;;;10.38;9.07;;;17.00;99.90;;;;;;5054306;28;20029;-74
2021/09/02 08:16:48;;;;;;;16.13;10.10;;;17.20;99.90;;;;;;5052753;28;20036;-75
2021/09/02 08:19:14;;;;;;;11.77;8.88;;;17.10;99.90;;;;;;5054941;28;20017;-74
2021/09/02 08:21:39;;;;;;;10.45;8.63;;;17.30;99.90;;;;;;5052832;28;20553;-75
2021/09/02 08:24:07;;;;;;;9.52;8.45;;;17.50;99.90;;;;;;5054045;28;20048;-74
2021/09/02 08:26:34;;;;;;;10.73;8.20;;;17.60;99.90;;;;;;5053121;28;20102;-74
2021/09/02 08:29:00;;;;;;;10.15;7.97;;;17.50;99.90;;;;;;5053758;28;20175;-75
2021/09/02 08:31:26;;;;;;;9.48;7.53;;;17.50;99.90;;;;;;5052549;28;20028;-75
2021/09/02 08:33:51;;;;;;;8.52;7.63;;;17.50;99.90;;;;;;5053909;28;20502;-75
2021/09/02 08:36:17;;;;;;;10.93;7.40;;;17.70;99.90;;;;;;5054221;28;20029;-73
2021/09/02 08:38:47;;;;;;;8.63;7.80;;;17.80;99.90;;;;;;5054244;28;20108;-73
2021/09/02 08:41:14;;;;;;;11.55;7.80;;;18.20;99.90;;;;;;5052536;28;20044;-75
2021/09/02 08:43:40;;;;;;;8.68;7.70;;;18.00;99.90;;;;;;5052616;28;20036;-74
2021/09/02 08:46:06;;;;;;;8.07;7.28;;;18.00;99.90;;;;;;5050129;28;20064;-75
2021/09/02 08:48:33;;;;;;;12.65;7.60;;;18.00;99.90;;;;;;5052446;28;20048;-74
2021/09/02 08:51:00;;;;;;;7.80;6.95;;;18.20;99.90;;;;;;5053652;28;20530;-74
2021/09/02 08:53:26;;;;;;;9.15;6.47;;;18.50;99.90;;;;;;5051919;28;20029;-74
2021/09/02 08:55:51;;;;;;;9.77;6.68;;;18.50;99.90;;;;;;5053866;28;20074;-75
2021/09/02 08:58:17;;;;;;;8.98;6.57;;;18.70;99.90;;;;;;5053491;28;20079;-75
2021/09/02 09:00:42;;;;;;;8.70;6.18;;;18.70;99.90;;;;;;5060442;28;20056;-74
2021/09/02 09:03:08;;;;;;;9.10;6.03;;;18.70;99.90;;;;;;5069329;28;20040;-74
2021/09/02 09:05:35;;;;;;;6.65;6.05;;;18.80;99.90;;;;;;5061997;28;20033;-75
2021/09/02 09:08:07;;;;;;;6.80;6.03;;;18.80;99.90;;;;;;5052108;28;20044;-74
2021/09/02 09:10:32;;;;;;;6.72;5.80;;;19.00;99.90;;;;;;5056649;28;20057;-74
2021/09/02 09:13:01;;;;;;;8.18;6.18;;;19.00;99.90;;;;;;5062631;28;20064;-74
2021/09/02 09:15:29;;;;;;;8.40;6.70;;;19.20;99.90;;;;;;5072864;28;20020;-74
2021/09/02 09:18:11;;;;;;;17.05;6.25;;;19.40;99.90;;;;;;5056007;28;20053;-74
2021/09/02 09:20:38;;;;;;;6.80;6.07;;;19.40;99.90;;;;;;5053157;28;20116;-73
2021/09/02 09:23:04;;;;;;;6.90;6.15;;;19.40;99.90;;;;;;5052948;28;20393;-74
2021/09/02 09:25:29;;;;;;;8.25;6.03;;;19.40;99.90;;;;;;5051867;28;20081;-74
2021/09/02 09:27:59;;;;;;;9.02;5.90;;;19.50;99.90;;;;;;5051398;28;20057;-74
2021/09/02 09:30:27;;;;;;;6.85;5.35;;;19.40;99.90;;;;;;5054886;28;20052;-75
2021/09/02 09:32:58;;;;;;;6.68;5.25;;;19.70;99.90;;;;;;5054501;28;20036;-74
2021/09/02 09:35:26;;;;;;;5.22;4.72;;;19.80;99.90;;;;;;5054315;28;20465;-75
2021/09/02 09:38:20;;;;;;;6.50;5.80;;;20.00;99.90;;;;;;5051592;28;20029;-73
2021/09/02 09:40:48;;;;;;;7.25;5.30;;;20.10;99.90;;;;;;5049136;28;20033;-74
2021/09/02 09:43:21;;;;;;;14.77;5.55;;;20.10;99.90;;;;;;5053518;28;20485;-74
2021/09/02 09:45:46;;;;;;;6.13;4.45;;;20.20;99.90;;;;;;5056374;28;20541;-75
2021/09/02 09:48:32;;;;;;;6.28;5.18;;;20.10;99.90;;;;;;5069384;28;20013;-75
2021/09/02 09:51:11;;;;;;;5.53;5.03;;;20.20;99.90;;;;;;5061235;28;20024;-74
2021/09/02 09:53:38;;;;;;;5.05;4.60;;;20.30;99.90;;;;;;5070914;28;20024;-74
2021/09/02 09:56:05;;;;;;;6.43;5.00;;;20.40;99.90;;;;;;5063840;28;20021;-73
2021/09/02 09:58:30;;;;;;;6.07;4.40;;;20.40;99.90;;;;;;5052554;28;20066;-74
2021/09/02 10:00:58;;;;;;;5.10;3.92;;;20.60;99.90;;;;;;5052060;28;20099;-74
2021/09/02 10:03:25;;;;;;;5.03;4.53;;;20.90;99.90;;;;;;5052771;28;20396;-73
2021/09/02 10:05:51;;;;;;;5.28;4.78;;;21.10;99.90;;;;;;5052837;28;20466;-73
2021/09/02 10:08:19;;;;;;;5.30;3.90;;;21.00;99.90;;;;;;5051737;28;20029;-74
2021/09/02 10:10:46;;;;;;;4.43;4.03;;;20.90;99.90;;;;;;5052377;28;20184;-73
2021/09/02 10:13:13;;;;;;;4.90;4.47;;;20.90;99.90;;;;;;5051360;28;20025;-74
2021/09/02 10:15:39;;;;;;;5.40;4.90;;;21.20;99.90;;;;;;5052243;28;20036;-74
2021/09/02 10:18:06;;;;;;;5.72;4.90;;;21.20;99.90;;;;;;5051009;28;20020;-74
2021/09/02 10:20:37;;;;;;;5.97;4.78;;;20.90;99.90;;;;;;5051881;28;20036;-73
2021/09/02 10:23:04;;;;;;;5.03;4.53;;;21.00;99.90;;;;;;5050406;28;20021;-74
2021/09/02 10:25:33;;;;;;;8.15;4.57;;;21.30;99.90;;;;;;5052270;28;20025;-74
2021/09/02 10:28:21;;;;;;;5.20;4.70;;;21.50;99.90;;;;;;5051724;28;20069;-74
2021/09/02 10:30:49;;;;;;;4.82;4.25;;;21.40;99.90;;;;;;5051799;28;20544;-74
2021/09/02 10:33:41;;;;;;;6.35;4.55;;;21.40;99.90;;;;;;5051757;28;20028;-75
2021/09/02 10:36:15;;;;;;;4.82;4.43;;;21.40;99.90;;;;;;5050930;28;20029;-73
2021/09/02 10:38:46;;;;;;;6.15;4.72;;;21.50;99.90;;;;;;5051125;28;20025;-74
2021/09/02 10:41:13;;;;;;;4.95;4.10;;;21.60;99.90;;;;;;5053564;28;20032;-79
2021/09/02 10:43:52;;;;;;;5.15;4.47;;;21.60;99.90;;;;;;5054255;28;20477;-79
2021/09/02 10:46:37;;;;;;;6.45;4.57;;;21.70;99.90;;;;;;5057252;28;20043;-78
2021/09/02 10:49:27;;;;;;;5.32;4.03;;;21.60;99.90;;;;;;5032078;28;20032;-78
2021/09/02 10:52:04;;;;;;;5.65;4.45;;;21.60;99.90;;;;;;5034294;28;20029;-78
2021/09/02 10:54:34;;;;;;;5.75;4.88;;;21.70;99.90;;;;;;5046291;28;20029;-79
2021/09/02 10:57:07;;;;;;;5.28;4.75;;;21.90;99.90;;;;;;5059018;28;20049;-79
2021/09/02 10:59:44;;;;;;;6.78;4.97;;;21.90;99.90;;;;;;5055519;28;20021;-78
2021/09/02 11:02:16;;;;;;;4.75;4.35;;;22.00;99.90;;;;;;5055220;28;20018;-78
2021/09/02 11:04:43;;;;;;;5.47;4.63;;;22.30;99.90;;;;;;5062597;28;20476;-79
2021/09/02 11:07:08;;;;;;;5.30;4.22;;;22.30;99.90;;;;;;5076271;28;20028;-79
2021/09/02 11:09:39;;;;;;;5.15;4.65;;;22.30;99.90;;;;;;5072080;28;20051;-80
2021/09/02 11:12:11;;;;;;;5.97;4.80;;;22.30;99.90;;;;;;5056876;28;20033;-80
2021/09/02 11:14:46;;;;;;;5.30;4.50;;;22.40;99.90;;;;;;5056819;28;20036;-79
2021/09/02 11:17:12;;;;;;;5.22;4.20;;;22.40;99.90;;;;;;5056558;28;20021;-79
2021/09/02 11:19:40;;;;;;;4.40;4.00;;;22.30;99.90;;;;;;5059298;28;20017;-78
2021/09/02 11:22:14;;;;;;;5.70;4.25;;;22.40;99.90;;;;;;5059281;28;20020;-79
2021/09/02 11:24:49;;;;;;;4.30;3.90;;;22.50;99.90;;;;;;5057083;28;20088;-80
2021/09/02 11:27:29;;;;;;;4.80;3.80;;;22.40;99.90;;;;;;5060885;28;20037;-79
2021/09/02 11:30:14;;;;;;;4.25;3.70;;;22.60;99.90;;;;;;5059757;28;20108;-79
2021/09/02 11:32:40;;;;;;;3.92;3.53;;;22.40;99.30;;;;;;5058643;28;20025;-79
2021/09/02 11:35:06;;;;;;;4.70;4.10;;;22.40;99.10;;;;;;5057666;28;20384;-80
2021/09/02 11:37:43;;;;;;;4.70;3.85;;;22.40;98.80;;;;;;5103330;28;20036;-78
2021/09/02 11:40:20;;;;;;;5.75;3.72;;;22.40;98.20;;;;;;5078519;28;20056;-79
2021/09/02 11:42:45;;;;;;;4.40;3.97;;;22.40;98.50;;;;;;5062156;28;20049;-79
2021/09/02 11:45:14;;;;;;;4.05;3.63;;;22.60;97.70;;;;;;5061959;28;20047;-79
2021/09/02 11:47:39;;;;;;;3.78;3.47;;;22.60;97.40;;;;;;5062110;28;20036;-79
2021/09/02 11:50:06;;;;;;;8.95;4.35;;;22.60;97.80;;;;;;5093476;28;20496;-80
2021/09/02 11:52:49;;;;;;;4.15;3.72;;;22.60;97.70;;;;;;5060990;28;20025;-79
2021/09/02 11:55:30;;;;;;;3.92;3.35;;;22.60;97.50;;;;;;5060456;28;20045;-79
2021/09/02 11:58:01;;;;;;;3.50;3.20;;;22.70;96.70;;;;;;5061738;28;20511;-79
2021/09/02 12:00:27;;;;;;;;;;;22.80;96.30;;;;;;5058908;28;20044;-80
2021/09/02 12:02:58;;;;;;;4.88;3.40;;;22.80;96.50;;;;;;5063620;28;20003;-78
2021/09/02 12:05:36;;;;;;;3.47;3.00;;;22.90;96.30;;;;;;5068878;28;20025;-79
2021/09/02 12:08:02;;;;;;;4.78;3.88;;;22.90;95.30;;;;;;5075872;28;20496;-79
2021/09/02 12:10:28;;;;;;;4.90;3.72;;;22.80;95.40;;;;;;5058911;28;20033;-80
2021/09/02 12:12:54;;;;;;;3.45;2.92;;;22.70;95.80;;;;;;5070084;28;20043;-79
2021/09/02 12:15:29;;;;;;;3.35;2.80;;;22.80;94.80;;;;;;5075475;28;20374;-79
2021/09/02 12:18:10;;;;;;;3.63;3.20;;;23.00;94.50;;;;;;5075126;28;20028;-78
2021/09/02 12:20:37;;;;;;;4.18;3.17;;;23.00;95.10;;;;;;5077159;28;20112;-79
2021/09/02 12:23:20;;;;;;;15.23;3.55;;;23.30;95.00;;;;;;5063177;28;20104;-80
2021/09/02 12:26:03;;;;;;;4.50;3.60;;;23.20;95.10;;;;;;5057389;28;20086;-79
2021/09/02 12:28:38;;;;;;;6.28;3.63;;;23.30;95.90;;;;;;5057025;28;20029;-80
2021/09/02 12:31:16;;;;;;;4.07;3.25;;;23.30;94.40;;;;;;5057071;28;20071;-79
2021/09/02 12:34:04;;;;;;;5.10;3.47;;;23.50;94.30;;;;;;5058849;28;20025;-79
2021/09/02 12:36:40;;;;;;;5.63;3.13;;;23.50;95.00;;;;;;5059296;28;20086;-78
2021/09/02 12:39:24;;;;;;;3.65;3.25;;;23.50;95.60;;;;;;5058892;28;20025;-78
2021/09/02 12:41:55;;;;;;;5.18;3.85;;;23.60;95.20;;;;;;5059700;28;20025;-79